Time;durP1;ratioP1;P1;durP2;ratioP2;P2;SDS_P1;SDS_P2;PMS_P1;PMS_P2;Temp;Humidity;BMP_temperature;BMP_pressure;BME280_temperature;BME280_humidity;BME280_pressure;Samples;Min_cycle;Max_cycle;Signal;HPM_P1;HPM_P2
2024/01/31 00:00:35;;;;;;;22.33;14.68;;;3.70;99.90;;;;;;5030119;28;20411;-75
2024/01/31 00:03:01;;;;;;;21.42;13.48;;;3.70;99.90;;;;;;5031864;28;20037;-75
2024/01/31 00:05:26;;;;;;;23.13;14.90;;;3.80;99.90;;;;;;5030497;28;20087;-75
2024/01/31 00:07:52;;;;;;;21.10;14.65;;;3.90;99.90;;;;;;5030034;28;20033;-75
2024/01/31 00:10:18;;;;;;;20.65;13.82;;;4.00;99.90;;;;;;5031332;28;20034;-75
2024/01/31 00:12:44;;;;;;;22.80;14.68;;;4.10;99.90;;;;;;5030616;28;20033;-77
2024/01/31 00:15:10;;;;;;;20.55;13.93;;;4.10;99.90;;;;;;5030932;28;20112;-75
2024/01/31 00:17:35;;;;;;;24.80;15.13;;;4.20;99.90;;;;;;5031395;28;20033;-75
2024/01/31 00:20:01;;;;;;;23.77;14.50;;;4.20;99.90;;;;;;5031740;28;20042;-76
2024/01/31 00:22:27;;;;;;;21.00;14.55;;;4.20;99.90;;;;;;5030685;28;20037;-75
2024/01/31 00:24:53;;;;;;;23.42;14.77;;;4.10;99.90;;;;;;5030388;28;20531;-76
2024/01/31 00:27:18;;;;;;;21.42;14.43;;;4.10;99.90;;;;;;5031256;28;20026;-75
2024/01/31 00:29:44;;;;;;;21.85;14.10;;;4.10;99.90;;;;;;5031436;28;20056;-76
2024/01/31 00:32:10;;;;;;;23.60;14.75;;;4.10;99.90;;;;;;5031364;28;20030;-77
2024/01/31 00:34:36;;;;;;;22.92;14.55;;;4.10;99.90;;;;;;5029640;28;20124;-77
2024/01/31 00:37:01;;;;;;;22.95;15.07;;;4.10;99.90;;;;;;5029625;28;20030;-76
2024/01/31 00:39:31;;;;;;;22.95;14.85;;;4.20;99.90;;;;;;5029902;28;20409;-77
2024/01/31 00:41:57;;;;;;;24.90;15.40;;;4.20;99.90;;;;;;5024431;28;20037;-77
2024/01/31 00:44:23;;;;;;;26.20;15.07;;;4.30;99.90;;;;;;5030268;28;20116;-76
2024/01/31 00:46:49;;;;;;;25.35;15.20;;;4.20;99.90;;;;;;5030425;28;20116;-77
2024/01/31 00:49:15;;;;;;;24.55;14.90;;;4.20;99.90;;;;;;5013192;28;20502;-76
2024/01/31 00:51:44;;;;;;;23.52;14.77;;;4.30;99.90;;;;;;5030335;28;20474;-77
2024/01/31 00:54:12;;;;;;;24.15;14.60;;;4.30;99.90;;;;;;5029582;28;20029;-77
2024/01/31 00:56:38;;;;;;;26.85;14.85;;;4.30;99.90;;;;;;5045917;28;20058;-76
2024/01/31 00:59:04;;;;;;;25.15;15.65;;;4.20;99.90;;;;;;5028767;28;20052;-77
2024/01/31 01:01:29;;;;;;;23.80;14.45;;;4.20;99.90;;;;;;5045438;28;20068;-77
2024/01/31 01:03:55;;;;;;;25.38;14.07;;;4.10;99.90;;;;;;5029449;28;20052;-77
2024/01/31 01:06:21;;;;;;;23.35;14.60;;;4.00;99.90;;;;;;5030750;28;20033;-77
2024/01/31 01:08:47;;;;;;;21.85;14.05;;;3.90;99.90;;;;;;5030689;28;20025;-76
2024/01/31 01:11:13;;;;;;;23.77;13.60;;;3.90;99.90;;;;;;5030846;28;20489;-77
2024/01/31 01:13:38;;;;;;;24.25;14.50;;;3.90;99.90;;;;;;5028762;28;20033;-76
2024/01/31 01:16:04;;;;;;;22.42;14.43;;;3.90;99.90;;;;;;5030212;28;20040;-77
2024/01/31 01:18:30;;;;;;;22.10;13.15;;;3.90;99.90;;;;;;5030259;28;20033;-77
2024/01/31 01:20:56;;;;;;;21.63;13.80;;;3.90;99.90;;;;;;5030546;28;20477;-77
2024/01/31 01:23:21;;;;;;;21.30;13.70;;;3.90;99.90;;;;;;5030311;28;20520;-76
2024/01/31 01:25:47;;;;;;;17.58;11.50;;;3.90;99.90;;;;;;5030020;28;20513;-77
2024/01/31 01:28:13;;;;;;;17.38;12.45;;;3.90;99.90;;;;;;5030390;28;20028;-77
2024/01/31 01:30:39;;;;;;;20.48;12.13;;;3.90;99.90;;;;;;5029377;28;20037;-77
2024/01/31 01:33:05;;;;;;;20.55;13.40;;;3.80;99.90;;;;;;5030111;28;20025;-77
2024/01/31 01:35:30;;;;;;;18.17;12.02;;;3.80;99.90;;;;;;5028892;28;20072;-77
2024/01/31 01:37:56;;;;;;;19.83;12.88;;;3.80;99.90;;;;;;5029196;28;20128;-77
2024/01/31 01:40:22;;;;;;;21.75;14.23;;;3.80;99.90;;;;;;5028971;28;20025;-77
2024/01/31 01:42:47;;;;;;;21.15;13.05;;;3.80;99.90;;;;;;5026953;28;20034;-77
2024/01/31 01:45:13;;;;;;;18.85;12.07;;;3.80;99.90;;;;;;5029925;28;20452;-77
2024/01/31 01:47:42;;;;;;;20.48;13.60;;;3.90;99.90;;;;;;5012235;28;20654;-77
2024/01/31 01:50:09;;;;;;;25.63;15.15;;;4.00;99.90;;;;;;5029003;28;20025;-77
2024/01/31 01:52:38;;;;;;;22.40;13.30;;;4.10;99.90;;;;;;5029291;28;20030;-77
2024/01/31 01:55:04;;;;;;;23.10;12.93;;;4.20;99.90;;;;;;5029356;28;20037;-77
2024/01/31 01:57:33;;;;;;;25.33;14.18;;;4.30;99.90;;;;;;5027633;28;20030;-77
2024/01/31 02:00:02;;;;;;;20.15;13.45;;;4.40;99.90;;;;;;5021362;28;20025;-77
2024/01/31 02:02:31;;;;;;;20.40;12.50;;;4.50;99.90;;;;;;5027211;28;20522;-77
2024/01/31 02:04:56;;;;;;;19.85;12.27;;;4.60;99.90;;;;;;5028410;28;20033;-77
2024/01/31 02:07:27;;;;;;;20.55;13.48;;;4.70;99.90;;;;;;5011970;28;20041;-76
2024/01/31 02:09:53;;;;;;;20.13;13.18;;;4.70;99.90;;;;;;5030114;28;20444;-77
2024/01/31 02:12:19;;;;;;;22.08;13.63;;;4.80;99.90;;;;;;5027987;28;20029;-77
2024/01/31 02:14:47;;;;;;;21.80;13.60;;;4.90;99.90;;;;;;5028341;28;20018;-77
2024/01/31 02:17:13;;;;;;;19.70;12.95;;;4.90;99.90;;;;;;5029787;28;20468;-77
2024/01/31 02:19:39;;;;;;;22.02;12.98;;;5.00;99.90;;;;;;5045282;28;20079;-77
2024/01/31 02:22:07;;;;;;;20.17;13.02;;;5.10;99.90;;;;;;5029489;28;20219;-77
2024/01/31 02:24:32;;;;;;;17.85;12.45;;;5.10;99.90;;;;;;5045149;28;20041;-77
2024/01/31 02:26:58;;;;;;;19.52;12.50;;;5.20;99.90;;;;;;5011825;28;20048;-77
2024/01/31 02:29:24;;;;;;;18.55;11.98;;;5.20;99.90;;;;;;5029891;28;20060;-77
2024/01/31 02:31:49;;;;;;;21.25;12.80;;;5.20;99.90;;;;;;5029747;28;20104;-77
2024/01/31 02:34:15;;;;;;;21.58;12.65;;;5.20;99.90;;;;;;5029805;28;20037;-77
2024/01/31 02:36:41;;;;;;;21.73;13.10;;;5.20;99.90;;;;;;5029253;28;20129;-77
2024/01/31 02:39:07;;;;;;;18.08;12.65;;;5.30;99.90;;;;;;5029527;28;20132;-77
2024/01/31 02:41:32;;;;;;;19.30;13.35;;;5.30;99.90;;;;;;5027546;28;20033;-77
2024/01/31 02:43:58;;;;;;;18.63;12.30;;;5.30;99.90;;;;;;5044881;28;20064;-77
2024/01/31 02:46:24;;;;;;;17.85;12.52;;;5.40;99.90;;;;;;5029096;28;20478;-77
2024/01/31 02:48:50;;;;;;;20.85;13.40;;;5.40;99.90;;;;;;5028293;28;20024;-77
2024/01/31 02:51:15;;;;;;;23.35;13.60;;;5.40;99.90;;;;;;5029480;28;20033;-77
2024/01/31 02:53:41;;;;;;;23.27;13.20;;;5.40;99.90;;;;;;5044553;28;20033;-76
2024/01/31 02:56:08;;;;;;;23.23;13.25;;;5.40;99.90;;;;;;5028271;28;20431;-77
2024/01/31 02:58:35;;;;;;;19.33;12.20;;;5.40;99.90;;;;;;5027859;28;20045;-77
2024/01/31 03:01:04;;;;;;;21.60;14.13;;;5.40;99.90;;;;;;5029549;28;20572;-77
2024/01/31 03:03:30;;;;;;;21.83;13.50;;;5.40;99.90;;;;;;5029448;28;20029;-77
2024/01/31 03:05:55;;;;;;;21.48;14.23;;;5.50;99.90;;;;;;5029141;28;20072;-77
2024/01/31 03:08:21;;;;;;;21.33;13.75;;;5.50;99.90;;;;;;5032085;28;20057;-77
2024/01/31 03:10:47;;;;;;;23.00;14.57;;;5.50;99.90;;;;;;5031906;28;20565;-77
2024/01/31 03:13:14;;;;;;;22.15;13.73;;;5.60;99.90;;;;;;5033040;28;20120;-77
2024/01/31 03:15:40;;;;;;;26.52;13.85;;;5.60;99.90;;;;;;5028124;28;20033;-77
2024/01/31 03:18:06;;;;;;;20.38;13.48;;;5.60;99.90;;;;;;5033010;28;20466;-77
2024/01/31 03:20:34;;;;;;;20.05;13.18;;;5.70;99.90;;;;;;5032488;28;20033;-77
2024/01/31 03:23:00;;;;;;;21.70;13.25;;;5.70;99.90;;;;;;5032569;28;20041;-77
2024/01/31 03:25:26;;;;;;;21.98;13.00;;;5.70;99.90;;;;;;5032418;28;20489;-76
2024/01/31 03:27:53;;;;;;;19.63;13.05;;;5.70;99.90;;;;;;5031498;28;20041;-77
2024/01/31 03:30:19;;;;;;;20.45;13.02;;;5.70;99.90;;;;;;5030440;28;20445;-77
2024/01/31 03:32:45;;;;;;;22.27;13.40;;;5.70;99.90;;;;;;5032660;28;20029;-76
2024/01/31 03:35:11;;;;;;;22.50;13.55;;;5.60;99.90;;;;;;5033451;28;20025;-77
2024/01/31 03:37:37;;;;;;;24.52;13.55;;;5.60;99.90;;;;;;5032795;28;20025;-77
2024/01/31 03:40:05;;;;;;;20.60;13.20;;;5.60;99.90;;;;;;5033288;28;20053;-77
2024/01/31 03:42:31;;;;;;;29.42;15.07;;;5.60;99.90;;;;;;5031647;28;20025;-77
2024/01/31 03:44:57;;;;;;;21.05;13.93;;;5.60;99.90;;;;;;5031979;28;20163;-78
2024/01/31 03:47:22;;;;;;;24.80;14.20;;;5.60;99.90;;;;;;5031229;28;20036;-77
2024/01/31 03:49:51;;;;;;;23.63;14.77;;;5.70;99.90;;;;;;5033420;28;20401;-77
2024/01/31 03:52:17;;;;;;;25.10;14.20;;;5.70;99.90;;;;;;5033088;28;20037;-77
2024/01/31 03:54:43;;;;;;;22.05;14.52;;;5.70;99.90;;;;;;5031713;28;20030;-77
2024/01/31 03:57:09;;;;;;;24.70;15.15;;;5.70;99.90;;;;;;5033040;28;20034;-77
2024/01/31 03:59:36;;;;;;;24.83;15.93;;;5.70;99.90;;;;;;5031351;28;20088;-77
2024/01/31 04:02:02;;;;;;;25.02;14.55;;;5.70;99.90;;;;;;5032703;28;20029;-77
2024/01/31 04:04:28;;;;;;;23.70;14.95;;;5.70;99.90;;;;;;5032956;28;20057;-77
2024/01/31 04:06:54;;;;;;;20.75;14.43;;;5.70;99.90;;;;;;5032427;28;20029;-77
2024/01/31 04:09:19;;;;;;;23.17;14.70;;;5.70;99.90;;;;;;5032163;28;20553;-77
2024/01/31 04:11:45;;;;;;;24.05;14.60;;;5.70;99.90;;;;;;5030826;28;20048;-77
2024/01/31 04:14:11;;;;;;;24.20;14.88;;;5.70;99.90;;;;;;5032209;28;20033;-77
2024/01/31 04:16:37;;;;;;;22.23;14.38;;;5.70;99.90;;;;;;5031780;28;20455;-77
2024/01/31 04:19:02;;;;;;;23.55;14.23;;;5.70;99.90;;;;;;5030313;28;20034;-77
2024/01/31 04:21:28;;;;;;;24.50;14.85;;;5.70;99.90;;;;;;5031873;28;20057;-77
2024/01/31 04:23:54;;;;;;;24.65;15.57;;;5.70;99.90;;;;;;5030786;28;20069;-78
2024/01/31 04:26:20;;;;;;;25.95;15.45;;;5.70;99.90;;;;;;5031728;28;20036;-77
2024/01/31 04:28:45;;;;;;;23.92;15.45;;;5.70;99.90;;;;;;5031671;28;20141;-77
2024/01/31 04:31:14;;;;;;;20.55;14.27;;;5.70;99.90;;;;;;5030570;28;20025;-77
2024/01/31 04:33:41;;;;;;;21.35;14.23;;;5.70;99.90;;;;;;5031682;28;20025;-77
2024/01/31 04:36:07;;;;;;;24.35;14.98;;;5.70;99.90;;;;;;5046978;28;20061;-77
2024/01/31 04:38:33;;;;;;;25.75;15.52;;;5.70;99.90;;;;;;5031548;28;20041;-77
2024/01/31 04:40:59;;;;;;;25.00;14.77;;;5.70;99.90;;;;;;5031748;28;20494;-77
2024/01/31 04:43:25;;;;;;;20.77;13.52;;;5.60;99.90;;;;;;5031330;28;20112;-78
2024/01/31 04:45:50;;;;;;;23.25;15.02;;;5.60;99.90;;;;;;5031347;28;20121;-77
2024/01/31 04:48:16;;;;;;;28.40;16.17;;;5.60;99.90;;;;;;5030892;28;20386;-77
2024/01/31 04:50:42;;;;;;;27.63;15.52;;;5.60;99.90;;;;;;5046636;28;20091;-78
2024/01/31 04:53:08;;;;;;;26.63;16.38;;;5.60;99.90;;;;;;5031241;28;20033;-78
2024/01/31 04:55:34;;;;;;;23.67;16.13;;;5.60;99.90;;;;;;5031282;28;20128;-78
2024/01/31 04:58:00;;;;;;;27.23;16.20;;;5.60;99.90;;;;;;5032231;28;20063;-77
2024/01/31 05:00:26;;;;;;;26.55;15.48;;;5.50;99.90;;;;;;5031935;28;20120;-77
2024/01/31 05:02:52;;;;;;;24.27;17.00;;;5.40;99.90;;;;;;5032270;28;20064;-78
2024/01/31 05:05:19;;;;;;;27.65;16.95;;;5.30;99.90;;;;;;5032866;28;20345;-77
2024/01/31 05:07:45;;;;;;;23.58;15.65;;;5.20;99.90;;;;;;5033468;28;20030;-79
2024/01/31 05:10:12;;;;;;;26.00;17.20;;;5.20;99.90;;;;;;5033317;28;20140;-78
2024/01/31 05:12:38;;;;;;;25.02;16.52;;;5.10;99.90;;;;;;5032047;28;20084;-78
2024/01/31 05:15:07;;;;;;;29.85;17.48;;;5.10;99.90;;;;;;5033274;28;20029;-79
2024/01/31 05:17:33;;;;;;;29.98;19.05;;;5.00;99.90;;;;;;5016156;28;20042;-78
2024/01/31 05:19:59;;;;;;;25.65;17.05;;;5.00;99.90;;;;;;5034265;28;20083;-79
2024/01/31 05:22:26;;;;;;;28.63;17.67;;;5.00;99.90;;;;;;5033254;28;20038;-79
2024/01/31 05:24:52;;;;;;;28.23;18.73;;;4.90;99.90;;;;;;5033169;28;20030;-79
2024/01/31 05:27:17;;;;;;;29.58;19.00;;;4.90;99.90;;;;;;5032413;28;20040;-79
2024/01/31 05:29:43;;;;;;;28.13;19.10;;;4.90;99.90;;;;;;5031366;28;20049;-79
2024/01/31 05:32:09;;;;;;;29.50;18.90;;;4.90;99.90;;;;;;5031672;28;20040;-79
2024/01/31 05:34:35;;;;;;;30.17;19.65;;;4.90;99.90;;;;;;5015273;28;20673;-80
2024/01/31 05:37:00;;;;;;;34.40;20.60;;;4.90;99.90;;;;;;5011765;28;20026;-79
2024/01/31 05:39:26;;;;;;;33.92;19.30;;;4.90;99.90;;;;;;5011687;28;20080;-79
2024/01/31 05:41:52;;;;;;;27.85;19.17;;;4.80;99.90;;;;;;5012082;28;20152;-79
2024/01/31 05:44:17;;;;;;;28.80;18.77;;;4.80;99.90;;;;;;5044366;28;20109;-79
2024/01/31 05:46:45;;;;;;;30.63;19.25;;;4.80;99.90;;;;;;5027778;28;20040;-79
2024/01/31 05:49:11;;;;;;;28.08;17.95;;;4.80;99.90;;;;;;5012401;28;20490;-79
2024/01/31 05:51:36;;;;;;;28.75;18.13;;;4.80;99.90;;;;;;5027698;28;20091;-79
2024/01/31 05:54:02;;;;;;;32.42;19.27;;;4.80;99.90;;;;;;5012945;28;20034;-79
2024/01/31 05:56:28;;;;;;;26.55;19.05;;;4.80;99.90;;;;;;5012683;28;20041;-79
2024/01/31 05:58:54;;;;;;;32.22;20.02;;;4.80;99.90;;;;;;5012513;28;20034;-79
2024/01/31 06:01:20;;;;;;;31.50;20.70;;;4.80;99.90;;;;;;5012305;28;20092;-79
2024/01/31 06:03:45;;;;;;;33.53;20.17;;;4.90;99.90;;;;;;5031678;28;20037;-79
2024/01/31 06:06:11;;;;;;;31.85;19.88;;;4.90;99.90;;;;;;5030555;28;20045;-79
2024/01/31 06:08:37;;;;;;;34.50;19.42;;;4.80;99.90;;;;;;5031888;28;20642;-79
2024/01/31 06:11:04;;;;;;;30.33;19.50;;;4.80;99.90;;;;;;5030812;28;20035;-79
2024/01/31 06:13:30;;;;;;;36.85;22.85;;;4.80;99.90;;;;;;5014571;28;20604;-79
2024/01/31 06:15:56;;;;;;;34.70;21.35;;;4.90;99.90;;;;;;5030919;28;20064;-79
2024/01/31 06:18:22;;;;;;;31.92;20.38;;;4.90;99.90;;;;;;5031733;28;20029;-79
2024/01/31 06:20:51;;;;;;;27.50;17.60;;;4.90;99.90;;;;;;5032112;28;20029;-79
2024/01/31 06:23:17;;;;;;;26.67;18.10;;;5.00;99.90;;;;;;5031538;28;20041;-79
2024/01/31 06:25:43;;;;;;;28.67;17.58;;;4.80;99.90;;;;;;5030971;28;20036;-79
2024/01/31 06:28:09;;;;;;;26.77;17.40;;;4.80;99.90;;;;;;5031839;28;20087;-79
2024/01/31 06:30:43;;;;;;;26.75;16.98;;;4.70;99.90;;;;;;5030841;28;20042;-79
2024/01/31 06:33:10;;;;;;;27.55;18.35;;;4.60;99.90;;;;;;5032302;28;20029;-79
2024/01/31 06:35:38;;;;;;;26.08;17.52;;;4.70;99.90;;;;;;5030503;28;20044;-79
2024/01/31 06:38:04;;;;;;;34.38;21.02;;;4.60;99.90;;;;;;5030363;28;20034;-79
2024/01/31 06:40:30;;;;;;;31.70;20.00;;;4.50;99.90;;;;;;5032058;28;20029;-79
2024/01/31 06:42:59;;;;;;;37.05;22.00;;;4.50;99.90;;;;;;5049344;28;20036;-79
2024/01/31 06:45:25;;;;;;;33.80;22.02;;;4.40;99.90;;;;;;5035385;28;20079;-79
2024/01/31 06:47:52;;;;;;;35.85;23.10;;;4.40;99.90;;;;;;5050944;28;20034;-79
2024/01/31 06:50:18;;;;;;;46.08;24.45;;;4.40;99.90;;;;;;5034642;28;20033;-79
2024/01/31 06:52:45;;;;;;;40.78;24.67;;;4.40;99.90;;;;;;5036096;28;20056;-79
2024/01/31 06:55:10;;;;;;;42.80;24.55;;;4.50;99.90;;;;;;5035697;28;20073;-79
2024/01/31 06:57:37;;;;;;;38.40;25.25;;;4.50;99.90;;;;;;5038025;28;20440;-79
2024/01/31 07:00:10;;;;;;;41.97;25.90;;;4.40;99.90;;;;;;5039695;28;20072;-79
2024/01/31 07:02:36;;;;;;;38.13;23.92;;;4.40;99.90;;;;;;5038669;28;20041;-79
2024/01/31 07:05:04;;;;;;;37.53;24.02;;;4.30;99.90;;;;;;5038219;28;20033;-80
2024/01/31 07:07:30;;;;;;;47.28;30.13;;;4.40;99.90;;;;;;5038676;28;20045;-81
2024/01/31 07:09:56;;;;;;;50.10;29.30;;;4.40;99.90;;;;;;5038486;28;20030;-80
2024/01/31 07:12:22;;;;;;;44.45;27.75;;;4.40;99.90;;;;;;5037978;28;20046;-79
2024/01/31 07:14:47;;;;;;;43.97;25.60;;;4.50;99.90;;;;;;5037062;28;20029;-79
2024/01/31 07:17:13;;;;;;;41.47;24.17;;;4.50;99.90;;;;;;5038363;28;20036;-80
2024/01/31 07:19:42;;;;;;;40.17;24.67;;;4.40;99.90;;;;;;5035938;28;20155;-79
2024/01/31 07:22:09;;;;;;;33.97;23.08;;;4.40;99.90;;;;;;5033065;28;20102;-79
2024/01/31 07:24:35;;;;;;;37.72;23.73;;;4.40;99.90;;;;;;5030286;28;20033;-79
2024/01/31 07:27:02;;;;;;;38.70;23.48;;;4.40;99.90;;;;;;5034451;28;20030;-79
2024/01/31 07:29:29;;;;;;;38.92;23.60;;;4.40;99.90;;;;;;5033087;28;20470;-79
2024/01/31 07:31:55;;;;;;;38.88;24.08;;;4.40;99.90;;;;;;5033082;28;20037;-79
2024/01/31 07:34:21;;;;;;;37.55;23.38;;;4.50;99.90;;;;;;5033286;28;20030;-79
2024/01/31 07:36:47;;;;;;;37.13;22.40;;;4.50;99.90;;;;;;5034222;28;20030;-79
2024/01/31 07:39:14;;;;;;;40.67;23.45;;;4.50;99.90;;;;;;5034150;28;20120;-79
2024/01/31 07:41:40;;;;;;;38.83;23.67;;;4.50;99.90;;;;;;5033272;28;20037;-79
2024/01/31 07:44:06;;;;;;;36.83;23.30;;;4.50;99.90;;;;;;5034553;28;20040;-79
2024/01/31 07:46:32;;;;;;;36.78;22.52;;;4.60;99.90;;;;;;5032518;28;20441;-79
2024/01/31 07:48:57;;;;;;;39.17;23.30;;;4.60;99.90;;;;;;5032639;28;20087;-79
2024/01/31 07:51:23;;;;;;;38.72;22.45;;;4.60;99.90;;;;;;5032536;28;20083;-79
2024/01/31 07:53:49;;;;;;;34.95;20.70;;;4.60;99.90;;;;;;5017737;28;20042;-80
2024/01/31 07:56:15;;;;;;;34.60;21.52;;;4.60;99.90;;;;;;5036271;28;20033;-79
2024/01/31 07:58:40;;;;;;;36.05;22.75;;;4.60;99.90;;;;;;5018567;28;20038;-80
2024/01/31 08:01:06;;;;;;;34.88;22.00;;;4.70;99.90;;;;;;5035086;28;20498;-80
2024/01/31 08:03:34;;;;;;;32.65;20.67;;;4.70;99.90;;;;;;5036018;28;20072;-79
2024/01/31 08:06:00;;;;;;;32.53;20.77;;;4.80;99.90;;;;;;5035891;28;20041;-79
2024/01/31 08:08:27;;;;;;;31.95;20.38;;;4.90;99.90;;;;;;5040709;28;20037;-79
2024/01/31 08:10:53;;;;;;;35.33;20.77;;;5.00;99.90;;;;;;5035832;28;20060;-79
2024/01/31 08:13:18;;;;;;;33.90;20.02;;;5.10;99.90;;;;;;5035640;28;20087;-79
2024/01/31 08:15:44;;;;;;;33.08;20.83;;;5.20;99.90;;;;;;5036104;28;20033;-80
2024/01/31 08:18:10;;;;;;;31.85;20.65;;;5.30;99.90;;;;;;5034637;28;20073;-80
2024/01/31 08:20:35;;;;;;;29.73;20.35;;;5.30;99.90;;;;;;5034709;28;20068;-79
2024/01/31 08:23:02;;;;;;;31.80;20.67;;;5.40;99.90;;;;;;5017780;28;20040;-79
2024/01/31 08:25:27;;;;;;;33.13;20.30;;;5.50;99.90;;;;;;5034140;28;20040;-79
2024/01/31 08:27:53;;;;;;;27.63;19.02;;;5.60;99.90;;;;;;5035849;28;20065;-80
2024/01/31 08:30:21;;;;;;;26.60;18.15;;;5.60;99.90;;;;;;5017233;28;20043;-79
2024/01/31 08:32:47;;;;;;;28.15;19.52;;;5.70;99.90;;;;;;5033865;28;20033;-79
2024/01/31 08:35:12;;;;;;;31.60;19.75;;;5.80;99.90;;;;;;5034100;28;20116;-80
2024/01/31 08:37:39;;;;;;;31.95;20.83;;;5.90;99.90;;;;;;5034081;28;20044;-79
2024/01/31 08:40:10;;;;;;;31.38;20.50;;;6.00;99.90;;;;;;5035127;28;20116;-79
2024/01/31 08:42:38;;;;;;;29.80;19.55;;;6.00;99.90;;;;;;5018463;28;20029;-79
2024/01/31 08:45:06;;;;;;;30.92;19.90;;;6.10;99.90;;;;;;5035160;28;20064;-79
2024/01/31 08:47:32;;;;;;;31.45;19.90;;;6.20;99.90;;;;;;5035094;28;20038;-79
2024/01/31 08:49:58;;;;;;;28.88;19.63;;;6.20;99.90;;;;;;5033891;28;20025;-79
2024/01/31 08:52:23;;;;;;;30.15;19.08;;;6.20;99.90;;;;;;5035012;28;20469;-79
2024/01/31 08:54:50;;;;;;;27.88;20.17;;;6.20;99.90;;;;;;5034465;28;20029;-79
2024/01/31 08:57:16;;;;;;;27.25;19.75;;;6.20;99.90;;;;;;5034707;28;20117;-79
2024/01/31 08:59:42;;;;;;;34.33;24.35;;;6.20;99.90;;;;;;5034712;28;20045;-79
2024/01/31 09:02:07;;;;;;;30.05;22.00;;;6.20;99.90;;;;;;5034840;28;20124;-79
2024/01/31 09:04:34;;;;;;;29.90;21.73;;;6.30;99.90;;;;;;5033018;28;20128;-79
2024/01/31 09:06:59;;;;;;;32.33;22.75;;;6.30;99.90;;;;;;5034055;28;20040;-80
2024/01/31 09:09:25;;;;;;;31.35;23.90;;;6.40;99.90;;;;;;5035532;28;20468;-79
2024/01/31 09:11:51;;;;;;;35.53;23.02;;;6.40;99.90;;;;;;5035842;28;20528;-80
2024/01/31 09:14:16;;;;;;;31.67;21.35;;;6.50;99.90;;;;;;5032080;28;20477;-80
2024/01/31 09:16:42;;;;;;;22.92;16.00;;;6.60;99.90;;;;;;5032135;28;20029;-80
2024/01/31 09:19:09;;;;;;;24.05;16.20;;;6.60;99.90;;;;;;5032981;28;20267;-80
2024/01/31 09:21:35;;;;;;;23.77;15.95;;;6.60;99.90;;;;;;5031513;28;20033;-81
2024/01/31 09:24:01;;;;;;;25.27;17.13;;;6.70;99.90;;;;;;5031288;28;20056;-81
2024/01/31 09:26:27;;;;;;;29.52;19.88;;;6.80;99.90;;;;;;5029172;28;20030;-80
2024/01/31 09:28:52;;;;;;;26.10;18.20;;;6.80;99.90;;;;;;5031216;28;20017;-80
2024/01/31 09:31:26;;;;;;;26.40;18.30;;;6.80;99.90;;;;;;5031441;28;20101;-80
2024/01/31 09:33:54;;;;;;;28.85;20.05;;;6.90;99.90;;;;;;5030488;28;20021;-80
2024/01/31 09:36:20;;;;;;;30.58;18.92;;;7.00;99.90;;;;;;5032798;28;20035;-80
2024/01/31 09:38:47;;;;;;;27.63;19.63;;;7.00;99.90;;;;;;5047997;28;20057;-80
2024/01/31 09:41:17;;;;;;;31.50;21.15;;;7.10;99.90;;;;;;5029041;28;20033;-80
2024/01/31 09:43:44;;;;;;;28.88;19.50;;;7.10;99.90;;;;;;5028763;28;20611;-80
2024/01/31 09:46:10;;;;;;;29.00;19.92;;;7.10;99.90;;;;;;5060390;28;20029;-80
2024/01/31 09:48:37;;;;;;;27.00;18.95;;;7.10;99.90;;;;;;5030728;28;20508;-80
2024/01/31 09:51:03;;;;;;;28.13;18.85;;;7.20;99.90;;;;;;5030372;28;20070;-80
2024/01/31 09:53:38;;;;;;;25.40;17.92;;;7.30;99.90;;;;;;5046940;28;20053;-80
2024/01/31 09:56:05;;;;;;;26.17;17.73;;;7.40;99.90;;;;;;5043590;28;20048;-78
2024/01/31 09:58:32;;;;;;;19.88;13.85;;;7.50;99.90;;;;;;5028887;28;20510;-78
2024/01/31 10:01:00;;;;;;;18.55;13.00;;;7.60;99.90;;;;;;5029787;28;20033;-78
2024/01/31 10:03:26;;;;;;;20.95;12.77;;;7.60;99.90;;;;;;5028666;28;20559;-80
2024/01/31 10:05:52;;;;;;;20.40;12.95;;;7.80;99.90;;;;;;5030786;28;20100;-77
2024/01/31 10:08:18;;;;;;;19.92;13.25;;;7.90;99.90;;;;;;5030715;28;20125;-77
2024/01/31 10:10:44;;;;;;;20.95;14.27;;;7.90;99.90;;;;;;5031198;28;20025;-77
2024/01/31 10:13:09;;;;;;;21.08;14.18;;;8.10;99.90;;;;;;5029826;28;20512;-78
2024/01/31 10:15:35;;;;;;;18.67;13.63;;;8.20;99.90;;;;;;5028161;28;20034;-78
2024/01/31 10:18:03;;;;;;;21.05;14.68;;;8.30;99.90;;;;;;5034658;28;20644;-80
2024/01/31 10:20:30;;;;;;;22.75;15.23;;;8.40;99.90;;;;;;5035827;28;20037;-78
2024/01/31 10:22:57;;;;;;;21.45;15.20;;;8.50;99.90;;;;;;5036356;28;20080;-78
2024/01/31 10:25:25;;;;;;;19.90;12.23;;;8.50;99.90;;;;;;5036299;28;20121;-78
2024/01/31 10:27:52;;;;;;;24.33;12.55;;;8.40;99.90;;;;;;5034765;28;20025;-78
2024/01/31 10:30:18;;;;;;;16.75;11.30;;;8.40;99.90;;;;;;5037305;28;20018;-80
2024/01/31 10:32:45;;;;;;;17.55;11.80;;;8.30;99.90;;;;;;5048964;28;20056;-78
2024/01/31 10:35:12;;;;;;;21.20;14.75;;;8.40;99.90;;;;;;5036398;28;20625;-80
2024/01/31 10:37:38;;;;;;;20.35;14.15;;;8.30;99.90;;;;;;5052974;28;20531;-81
2024/01/31 10:40:12;;;;;;;21.67;14.43;;;8.30;99.90;;;;;;5036272;28;20037;-80
2024/01/31 10:42:38;;;;;;;22.27;16.00;;;8.30;99.90;;;;;;5038954;28;20025;-80
2024/01/31 10:45:05;;;;;;;22.52;14.98;;;8.30;99.90;;;;;;5039164;28;20156;-80
2024/01/31 10:47:32;;;;;;;22.15;15.75;;;8.20;99.90;;;;;;5038151;28;20084;-81
2024/01/31 10:49:58;;;;;;;21.25;14.52;;;8.00;99.90;;;;;;5038416;28;20060;-80
2024/01/31 10:52:30;;;;;;;23.77;15.50;;;8.00;99.90;;;;;;5037292;28;20105;-80
2024/01/31 10:55:00;;;;;;;24.30;14.35;;;8.00;99.90;;;;;;5036366;28;20026;-80
2024/01/31 10:57:27;;;;;;;19.50;14.35;;;8.20;99.90;;;;;;5037542;28;20044;-80
2024/01/31 10:59:55;;;;;;;19.08;14.27;;;8.20;99.90;;;;;;5037058;28;20038;-80
2024/01/31 11:02:33;;;;;;;18.15;12.35;;;8.20;99.90;;;;;;5069620;28;20041;-80
2024/01/31 11:05:06;;;;;;;14.45;10.77;;;8.20;99.90;;;;;;5038005;28;20116;-80
2024/01/31 11:07:44;;;;;;;15.52;11.45;;;8.20;99.90;;;;;;5038378;28;20045;-80
2024/01/31 11:10:14;;;;;;;20.27;14.60;;;8.20;99.90;;;;;;5053317;28;20025;-80
2024/01/31 11:12:40;;;;;;;21.65;14.18;;;8.30;99.90;;;;;;5036862;28;20113;-79
2024/01/31 11:15:06;;;;;;;19.67;13.63;;;8.30;99.90;;;;;;5037093;28;20065;-80
2024/01/31 11:17:34;;;;;;;12.82;9.50;;;8.40;99.90;;;;;;5038020;28;20513;-80
2024/01/31 11:20:01;;;;;;;13.68;9.45;;;8.50;99.90;;;;;;5037563;28;20040;-80
2024/01/31 11:22:30;;;;;;;13.05;9.30;;;8.50;99.90;;;;;;5037326;28;20094;-79
2024/01/31 11:25:00;;;;;;;12.18;8.73;;;8.60;99.90;;;;;;5037547;28;20052;-79
2024/01/31 11:27:26;;;;;;;10.32;7.82;;;8.60;99.90;;;;;;5036461;28;20509;-79
2024/01/31 11:29:52;;;;;;;13.35;7.43;;;8.60;99.90;;;;;;5036860;28;20026;-79
2024/01/31 11:32:19;;;;;;;11.65;8.55;;;8.60;99.90;;;;;;5036653;28;20104;-80
2024/01/31 11:34:45;;;;;;;13.77;9.10;;;8.70;99.90;;;;;;5036561;28;20038;-79
2024/01/31 11:37:10;;;;;;;11.13;7.97;;;8.90;99.90;;;;;;5036807;28;20048;-80
2024/01/31 11:39:36;;;;;;;13.02;8.07;;;8.90;99.90;;;;;;5036776;28;20037;-80
2024/01/31 11:42:02;;;;;;;9.68;7.53;;;9.00;99.90;;;;;;5035132;28;20045;-79
2024/01/31 11:44:29;;;;;;;10.95;7.78;;;9.10;99.90;;;;;;5034309;28;20037;-79
2024/01/31 11:46:56;;;;;;;10.80;8.05;;;9.10;99.90;;;;;;5018803;28;20029;-79
2024/01/31 11:49:25;;;;;;;14.88;8.48;;;9.10;99.90;;;;;;5036510;28;20056;-79
2024/01/31 11:51:51;;;;;;;13.75;8.20;;;9.20;99.90;;;;;;5036091;28;20030;-79
2024/01/31 11:54:17;;;;;;;13.02;7.85;;;9.30;99.90;;;;;;5032192;28;20375;-78
2024/01/31 11:56:43;;;;;;;12.70;8.10;;;9.50;99.90;;;;;;5030577;28;20532;-79
2024/01/31 11:59:09;;;;;;;9.77;7.72;;;9.50;99.90;;;;;;5032999;28;20861;-79
2024/01/31 12:01:35;;;;;;;10.63;7.43;;;9.60;99.90;;;;;;5013942;28;20040;-79
2024/01/31 12:04:04;;;;;;;10.48;7.72;;;9.60;99.90;;;;;;5014884;28;20025;-80
2024/01/31 12:06:30;;;;;;;9.30;6.93;;;9.60;99.90;;;;;;5030387;28;20044;-79
2024/01/31 12:08:57;;;;;;;10.27;7.10;;;9.70;99.90;;;;;;5031701;28;20030;-79
2024/01/31 12:11:23;;;;;;;10.63;7.40;;;9.70;99.90;;;;;;5032440;28;20116;-80
2024/01/31 12:13:49;;;;;;;7.85;6.50;;;9.70;99.90;;;;;;5061042;28;20136;-80
2024/01/31 12:16:15;;;;;;;10.13;6.55;;;9.50;99.90;;;;;;5012998;28;20080;-79
2024/01/31 12:18:40;;;;;;;10.40;7.13;;;9.40;99.90;;;;;;5032050;28;20041;-80
2024/01/31 12:21:10;;;;;;;9.43;6.05;;;9.40;99.90;;;;;;5029680;28;20045;-80
2024/01/31 12:23:36;;;;;;;8.27;6.57;;;9.30;99.90;;;;;;5029725;28;20044;-80
2024/01/31 12:26:02;;;;;;;8.70;6.85;;;9.40;99.90;;;;;;5043914;28;20061;-80
2024/01/31 12:28:28;;;;;;;8.35;5.82;;;9.30;99.90;;;;;;5030456;28;20056;-80
2024/01/31 12:30:54;;;;;;;9.77;6.07;;;9.20;99.90;;;;;;5030700;28;20724;-80
2024/01/31 12:33:21;;;;;;;8.43;6.10;;;9.30;99.90;;;;;;5015116;28;20120;-80